Mims, Florida
Current Conditions -  °F | °C
As of 1:58 PM on Tuesday 27 Jan 2015 (Local Time) from KTTS Reporting Station
Clear Clear  
Wind Chill: 64°   Ceiling: Unl
Heat Index: 64°   Visibility: 10mi
Dew Point: 38°   Wind: 18mph
Humidity: 38%   Direction: 300°WNW
Pressure: 29.91"   Gusts: 23mph
Location:  28.66°N, 80.85°W
Report Text: KTTS 271858Z AUTO 30016G20KT 10SM CLR 18/03 A2991 RMK AO2 SLP132 T01780034
Loading
Personal Weather Stations






























Interactive Weather Map New forecast layout! Learn more

10-Day Weather Forecast

Advertisements
Track Severe Weather on mobile